Time;durP1;ratioP1;P1;durP2;ratioP2;P2;SDS_P1;SDS_P2;PMS_P1;PMS_P2;Temp;Humidity;BMP_temperature;BMP_pressure;BME280_temperature;BME280_humidity;BME280_pressure;Samples;Min_cycle;Max_cycle;Signal;HPM_P1;HPM_P2
2023/05/03 00:01:38;;;;;;;12.57;5.55;;;;;;;12.62;100.00;101190.72;5051101;28;20433;-72
2023/05/03 00:04:15;;;;;;;7.28;4.53;;;;;;;12.60;100.00;101190.41;5051785;28;20029;-72
2023/05/03 00:06:43;;;;;;;9.55;4.38;;;;;;;12.51;100.00;101181.84;5051698;28;20032;-72
2023/05/03 00:09:09;;;;;;;8.18;4.25;;;;;;;12.53;100.00;101189.97;5052965;28;20134;-75
2023/05/03 00:11:35;;;;;;;12.30;4.78;;;;;;;12.48;100.00;101199.22;5052858;28;20032;-72
2023/05/03 00:14:01;;;;;;;9.52;4.70;;;;;;;12.44;100.00;101202.28;5054444;28;20128;-71
2023/05/03 00:16:29;;;;;;;10.85;5.30;;;;;;;12.38;100.00;101198.47;5054219;28;20466;-72
2023/05/03 00:18:54;;;;;;;10.57;4.25;;;;;;;12.37;100.00;101199.75;5054113;28;20505;-71
2023/05/03 00:21:28;;;;;;;10.38;4.30;;;;;;;12.33;100.00;101201.97;5054183;28;20025;-72
2023/05/03 00:23:55;;;;;;;8.10;4.18;;;;;;;12.27;100.00;101210.41;5054252;28;20048;-71
2023/05/03 00:26:21;;;;;;;7.25;4.20;;;;;;;12.24;100.00;101213.47;5051430;28;20482;-72
2023/05/03 00:28:48;;;;;;;11.57;4.70;;;;;;;12.19;100.00;101205.53;5053539;28;20098;-73
2023/05/03 00:31:13;;;;;;;10.73;4.53;;;;;;;12.12;100.00;101203.78;5052545;28;20094;-72
2023/05/03 00:33:40;;;;;;;6.32;3.88;;;;;;;12.06;100.00;101213.53;5053856;28;20088;-71
2023/05/03 00:36:10;;;;;;;10.73;3.88;;;;;;;12.03;100.00;101218.13;5053004;28;20064;-73
2023/05/03 00:38:37;;;;;;;10.00;3.65;;;;;;;12.03;100.00;101217.34;5052688;28;20126;-72
2023/05/03 00:41:04;;;;;;;5.53;3.55;;;;;;;12.03;100.00;101226.72;5052321;28;20039;-73
2023/05/03 00:43:30;;;;;;;9.85;3.95;;;;;;;12.03;100.00;101223.06;5053474;28;20033;-72
2023/05/03 00:45:57;;;;;;;9.27;3.83;;;;;;;12.03;100.00;101212.41;5051978;28;20025;-72
2023/05/03 00:48:22;;;;;;;6.35;3.30;;;;;;;12.01;100.00;101225.63;5035701;28;20174;-72
2023/05/03 00:50:48;;;;;;;10.20;3.63;;;;;;;12.00;100.00;101224.84;5053208;28;20029;-71
2023/05/03 00:53:15;;;;;;;10.35;3.88;;;;;;;11.98;100.00;101213.06;5052226;28;20053;-72
2023/05/03 00:55:42;;;;;;;8.85;3.70;;;;;;;11.96;100.00;101223.41;5035113;28;20036;-71
2023/05/03 00:58:10;;;;;;;10.35;3.70;;;;;;;11.91;100.00;101224.84;5035311;28;20063;-72
2023/05/03 01:00:36;;;;;;;11.30;4.30;;;;;;;11.88;100.00;101225.00;5053391;28;20036;-72
2023/05/03 01:03:02;;;;;;;7.78;3.95;;;;;;;11.87;100.00;101224.19;5051871;28;20029;-71
2023/05/03 01:05:33;;;;;;;7.63;4.10;;;;;;;11.86;100.00;101221.84;5053456;28;20025;-72
2023/05/03 01:08:16;;;;;;;8.88;3.95;;;;;;;11.81;100.00;101224.06;5051674;28;20071;-72
2023/05/03 01:10:54;;;;;;;6.25;3.63;;;;;;;11.79;100.00;101222.94;5035418;28;20029;-72
2023/05/03 01:13:37;;;;;;;8.10;4.65;;;;;;;11.77;100.00;101231.22;5051815;28;20090;-70
2023/05/03 01:16:13;;;;;;;12.38;3.47;;;;;;;11.71;100.00;101238.88;5053021;28;20470;-72
2023/05/03 01:18:40;;;;;;;7.05;3.47;;;;;;;11.67;100.00;101229.63;5051743;28;20107;-73
2023/05/03 01:21:09;;;;;;;12.55;4.20;;;;;;;11.65;100.00;101241.59;5051653;28;20021;-72
2023/05/03 01:23:45;;;;;;;7.70;3.55;;;;;;;11.61;100.00;101238.09;5058163;28;20493;-71
2023/05/03 01:26:29;;;;;;;8.68;3.45;;;;;;;11.59;100.00;101237.75;5056425;28;20037;-72
2023/05/03 01:29:09;;;;;;;7.88;3.92;;;;;;;11.56;100.00;101235.88;5057163;28;20096;-72
2023/05/03 01:31:48;;;;;;;7.88;3.25;;;;;;;11.57;100.00;101242.34;5052897;28;20443;-71
2023/05/03 01:34:37;;;;;;;10.05;3.78;;;;;;;11.56;100.00;101247.31;5050366;28;20037;-71
2023/05/03 01:37:04;;;;;;;12.63;4.05;;;;;;;11.54;100.00;101244.13;5050815;28;20020;-71
2023/05/03 01:39:49;;;;;;;8.30;3.90;;;;;;;11.54;100.00;101255.56;5049284;28;20029;-73
2023/05/03 01:42:15;;;;;;;4.78;3.03;;;;;;;11.51;100.00;101258.59;5049309;28;20029;-73
2023/05/03 01:44:42;;;;;;;8.48;3.45;;;;;;;11.43;100.00;101248.72;5032164;28;20351;-72
2023/05/03 01:47:11;;;;;;;10.98;4.95;;;;;;;11.45;100.00;101258.44;5050024;28;20029;-73
2023/05/03 01:49:42;;;;;;;8.98;3.58;;;;;;;11.42;100.00;101253.63;5049284;28;20021;-73
2023/05/03 01:52:08;;;;;;;6.13;3.30;;;;;;;11.39;100.00;101246.00;5051428;28;20029;-71
2023/05/03 01:54:36;;;;;;;7.82;3.53;;;;;;;11.36;100.00;101258.44;5051133;28;20038;-71
2023/05/03 01:57:02;;;;;;;6.88;3.35;;;;;;;11.32;100.00;101257.78;5049585;28;20041;-72
2023/05/03 01:59:37;;;;;;;8.63;3.10;;;;;;;11.33;100.00;101263.03;5050361;28;20029;-71
2023/05/03 02:02:03;;;;;;;7.63;3.65;;;;;;;11.32;100.00;101263.50;5052159;28;20477;-70
2023/05/03 02:04:28;;;;;;;5.93;2.75;;;;;;;11.28;100.00;101263.66;5053693;28;20029;-71
2023/05/03 02:06:56;;;;;;;6.43;2.88;;;;;;;11.27;100.00;101267.00;5050712;28;20531;-72
2023/05/03 02:09:23;;;;;;;7.05;3.30;;;;;;;11.22;100.00;101256.94;5052269;28;20041;-71
2023/05/03 02:11:48;;;;;;;9.85;3.53;;;;;;;11.22;100.00;101265.53;5051563;28;20029;-72
2023/05/03 02:14:15;;;;;;;7.85;3.90;;;;;;;11.18;100.00;101267.75;5052406;28;20037;-72
2023/05/03 02:16:42;;;;;;;8.40;4.35;;;;;;;11.11;100.00;101268.06;5052705;28;20025;-74
2023/05/03 02:19:09;;;;;;;7.05;4.03;;;;;;;11.02;100.00;101262.31;5051953;28;20090;-71
2023/05/03 02:21:37;;;;;;;4.95;3.65;;;;;;;10.96;100.00;101270.72;5035380;28;20109;-72
2023/05/03 02:24:03;;;;;;;9.70;3.55;;;;;;;10.88;100.00;101272.25;5054885;28;20033;-72
2023/05/03 02:26:30;;;;;;;6.05;3.42;;;;;;;10.79;99.84;101271.44;5055813;28;20051;-73
2023/05/03 02:28:57;;;;;;;7.47;3.45;;;;;;;10.69;100.00;101267.75;5056240;28;20033;-72
2023/05/03 02:31:25;;;;;;;8.77;3.70;;;;;;;10.69;100.00;101276.31;5054777;28;20466;-72
2023/05/03 02:33:53;;;;;;;7.25;3.08;;;;;;;10.63;100.00;101266.75;5054870;28;20441;-71
2023/05/03 02:36:25;;;;;;;7.65;4.22;;;;;;;10.59;100.00;101283.25;5055949;28;20040;-72
2023/05/03 02:38:51;;;;;;;11.20;3.70;;;;;;;10.37;99.86;101268.22;5055913;28;20032;-71
2023/05/03 02:41:17;;;;;;;8.02;3.40;;;;;;;10.39;99.49;101280.78;5056245;28;20116;-72
2023/05/03 02:43:44;;;;;;;7.20;3.35;;;;;;;10.32;99.80;101283.13;5055354;28;20107;-73
2023/05/03 02:46:11;;;;;;;7.97;3.65;;;;;;;10.21;99.18;101282.72;5056009;28;20036;-72
2023/05/03 02:48:38;;;;;;;8.95;3.50;;;;;;;10.14;98.99;101278.06;5054792;28;20111;-71
2023/05/03 02:51:04;;;;;;;9.85;3.78;;;;;;;10.07;98.56;101284.06;5055655;28;20025;-72
2023/05/03 02:53:31;;;;;;;6.95;3.28;;;;;;;10.01;98.77;101283.88;5055696;28;20024;-70
2023/05/03 02:55:57;;;;;;;8.82;3.38;;;;;;;10.00;99.05;101284.34;5055363;28;20056;-72
2023/05/03 02:58:24;;;;;;;10.50;4.15;;;;;;;9.98;99.07;101293.38;5054248;28;20025;-70
2023/05/03 03:00:52;;;;;;;7.40;3.33;;;;;;;9.96;99.32;101289.38;5055780;28;20060;-71
2023/05/03 03:03:18;;;;;;;7.43;4.10;;;;;;;9.93;99.46;101287.47;5052408;28;20076;-70
2023/05/03 03:05:45;;;;;;;6.85;3.80;;;;;;;9.91;99.86;101295.69;5054103;28;20442;-72
2023/05/03 03:08:10;;;;;;;8.93;4.00;;;;;;;9.84;100.00;101296.75;5053699;28;20045;-72
2023/05/03 03:10:35;;;;;;;8.75;3.45;;;;;;;9.84;99.86;101290.25;5055302;28;20455;-73
2023/05/03 03:13:03;;;;;;;7.45;3.55;;;;;;;9.79;100.00;101291.63;5054376;28;20116;-73
2023/05/03 03:15:29;;;;;;;6.75;3.65;;;;;;;9.69;100.00;101293.56;5054054;28;20025;-71
2023/05/03 03:18:15;;;;;;;6.35;3.40;;;;;;;9.62;100.00;101293.06;5053666;28;20037;-71
2023/05/03 03:20:42;;;;;;;10.18;4.35;;;;;;;9.51;100.00;101289.78;5055142;28;20057;-72
2023/05/03 03:23:07;;;;;;;7.75;3.33;;;;;;;9.44;100.00;101302.25;5053891;28;20041;-71
2023/05/03 03:25:34;;;;;;;6.55;3.35;;;;;;;9.33;100.00;101295.31;5055032;28;20102;-72
2023/05/03 03:28:01;;;;;;;11.85;4.65;;;;;;;9.24;100.00;101305.38;5054541;28;20045;-71
2023/05/03 03:30:29;;;;;;;7.20;3.85;;;;;;;9.15;100.00;101304.47;5055831;28;20116;-70
2023/05/03 03:32:54;;;;;;;7.95;4.00;;;;;;;9.09;100.00;101303.47;5050407;28;20037;-70
2023/05/03 03:35:29;;;;;;;7.43;4.10;;;;;;;9.05;100.00;101295.00;5055145;28;20390;-70
2023/05/03 03:37:54;;;;;;;7.72;4.05;;;;;;;9.03;100.00;101299.59;5055329;28;20021;-72
2023/05/03 03:40:21;;;;;;;8.23;3.40;;;;;;;9.02;100.00;101306.53;5055071;28;20342;-71
2023/05/03 03:42:47;;;;;;;13.00;3.78;;;;;;;9.01;100.00;101300.03;5054532;28;20037;-72
2023/05/03 03:45:14;;;;;;;8.05;3.60;;;;;;;9.06;100.00;101305.16;5054836;28;20024;-72
2023/05/03 03:47:40;;;;;;;5.78;3.80;;;;;;;9.07;100.00;101300.25;5036848;28;20397;-72
2023/05/03 03:50:08;;;;;;;10.63;4.22;;;;;;;9.10;100.00;101302.22;5054486;28;20044;-72
2023/05/03 03:52:34;;;;;;;9.80;4.22;;;;;;;9.13;100.00;101307.78;5054822;28;20039;-70
2023/05/03 03:55:01;;;;;;;5.88;3.67;;;;;;;9.17;100.00;101311.31;5054574;28;20033;-70
2023/05/03 03:57:29;;;;;;;7.80;3.47;;;;;;;9.23;100.00;101315.19;5054195;28;20365;-71
2023/05/03 03:59:55;;;;;;;7.63;4.00;;;;;;;9.24;100.00;101316.78;5053312;28;20045;-71
2023/05/03 04:02:23;;;;;;;9.10;3.75;;;;;;;9.22;100.00;101321.34;5053491;28;20041;-71
2023/05/03 04:04:48;;;;;;;9.18;3.38;;;;;;;9.19;100.00;101323.06;5054837;28;20466;-72
2023/05/03 04:07:15;;;;;;;7.72;3.92;;;;;;;9.13;100.00;101324.91;5036225;28;20115;-71
2023/05/03 04:09:41;;;;;;;9.02;4.20;;;;;;;9.10;100.00;101331.50;5053107;28;20102;-72
2023/05/03 04:12:08;;;;;;;10.05;3.92;;;;;;;9.05;100.00;101332.06;5051921;28;20036;-73
2023/05/03 04:14:34;;;;;;;8.85;3.72;;;;;;;8.95;100.00;101338.94;5054313;28;20075;-72
2023/05/03 04:17:00;;;;;;;8.05;3.50;;;;;;;8.84;100.00;101338.47;5053896;28;20049;-71
2023/05/03 04:19:27;;;;;;;6.68;3.50;;;;;;;8.78;100.00;101343.16;5054333;28;20112;-73
2023/05/03 04:21:53;;;;;;;10.13;3.80;;;;;;;8.76;100.00;101342.78;5053038;28;20075;-71
2023/05/03 04:24:20;;;;;;;9.43;3.88;;;;;;;8.70;100.00;101342.59;5052681;28;20481;-71
2023/05/03 04:26:45;;;;;;;11.90;3.95;;;;;;;8.65;100.00;101348.84;5053813;28;20102;-71
2023/05/03 04:29:11;;;;;;;10.48;3.75;;;;;;;8.62;100.00;101351.78;5054010;28;20474;-73
2023/05/03 04:31:45;;;;;;;11.10;4.22;;;;;;;8.65;100.00;101353.75;5053930;28;20540;-73
2023/05/03 04:34:14;;;;;;;10.82;4.22;;;;;;;8.67;100.00;101354.06;5052233;28;20021;-72
2023/05/03 04:36:44;;;;;;;9.63;4.22;;;;;;;8.68;100.00;101352.81;5051562;28;20033;-71
2023/05/03 04:39:11;;;;;;;7.25;4.07;;;;;;;8.73;100.00;101357.97;5053813;28;20110;-71
2023/05/03 04:41:39;;;;;;;9.25;4.20;;;;;;;8.79;100.00;101362.66;5053733;28;20025;-70
2023/05/03 04:44:05;;;;;;;8.18;4.25;;;;;;;8.82;100.00;101361.72;5052907;28;20025;-72
2023/05/03 04:46:32;;;;;;;7.57;3.83;;;;;;;8.92;100.00;101365.50;5035369;28;20382;-72
2023/05/03 04:48:58;;;;;;;7.40;4.25;;;;;;;9.00;100.00;101366.84;5053137;28;20394;-73
2023/05/03 04:51:27;;;;;;;9.60;4.32;;;;;;;9.07;100.00;101360.13;5051441;28;20044;-72
2023/05/03 04:53:53;;;;;;;7.30;3.83;;;;;;;9.15;100.00;101362.28;5053552;28;20075;-72
2023/05/03 04:56:24;;;;;;;9.18;3.80;;;;;;;9.24;100.00;101364.47;5051806;28;20051;-72
2023/05/03 04:58:51;;;;;;;6.30;3.42;;;;;;;9.27;100.00;101372.91;5039429;28;20021;-71
2023/05/03 05:01:20;;;;;;;7.18;3.95;;;;;;;9.37;100.00;101381.56;5053200;28;20116;-71
2023/05/03 05:03:46;;;;;;;11.52;4.50;;;;;;;9.44;100.00;101387.84;5051434;28;20028;-71
2023/05/03 05:06:11;;;;;;;6.43;3.90;;;;;;;9.50;100.00;101383.13;5052070;28;20044;-70
2023/05/03 05:08:37;;;;;;;6.70;3.58;;;;;;;9.60;100.00;101387.66;5052423;28;20444;-72
2023/05/03 05:11:04;;;;;;;6.57;3.75;;;;;;;9.69;100.00;101389.84;5051878;28;20021;-73
2023/05/03 05:13:30;;;;;;;6.47;3.65;;;;;;;9.81;100.00;101385.38;5052533;28;20118;-73
2023/05/03 05:15:55;;;;;;;6.43;4.18;;;;;;;10.00;99.89;101392.84;5050863;28;20066;-71
2023/05/03 05:18:20;;;;;;;9.13;3.75;;;;;;;10.27;98.40;101383.72;5052712;28;20017;-73
2023/05/03 05:20:47;;;;;;;7.57;4.07;;;;;;;10.56;97.25;101392.81;5052826;28;20044;-72
2023/05/03 05:23:12;;;;;;;7.22;3.60;;;;;;;10.99;96.21;101400.50;5052339;28;20060;-74
2023/05/03 05:25:39;;;;;;;9.23;3.42;;;;;;;11.44;94.48;101397.06;5051601;28;20021;-74
2023/05/03 05:28:06;;;;;;;8.13;3.53;;;;;;;11.86;92.08;101416.59;5051511;28;20377;-73
2023/05/03 05:30:31;;;;;;;7.53;3.85;;;;;;;12.18;89.67;101418.84;5052336;28;20047;-74
2023/05/03 05:32:58;;;;;;;8.77;3.85;;;;;;;12.41;86.88;101420.28;5052815;28;20020;-73
2023/05/03 05:35:23;;;;;;;13.57;4.25;;;;;;;12.56;84.71;101424.09;5054799;28;20051;-74
2023/05/03 05:37:48;;;;;;;7.38;3.45;;;;;;;12.73;83.45;101430.31;5056400;28;20078;-73
2023/05/03 05:40:17;;;;;;;10.48;4.38;;;;;;;12.95;81.84;101413.66;5056996;28;20052;-74
2023/05/03 05:42:45;;;;;;;12.02;3.90;;;;;;;13.16;80.23;101429.88;5054358;28;20091;-73
2023/05/03 05:45:11;;;;;;;10.05;3.88;;;;;;;13.34;79.05;101423.28;5051414;28;20021;-73
2023/05/03 05:47:37;;;;;;;7.32;3.83;;;;;;;13.54;77.36;101438.66;5052887;28;20021;-71
2023/05/03 05:50:05;;;;;;;7.68;3.63;;;;;;;13.62;75.37;101430.50;5052659;28;20033;-73
2023/05/03 05:52:31;;;;;;;9.95;3.78;;;;;;;13.63;74.30;101446.47;5051405;28;20451;-73
2023/05/03 05:54:57;;;;;;;10.38;4.55;;;;;;;13.66;74.36;101453.28;5052750;28;20044;-74
2023/05/03 05:57:23;;;;;;;7.85;3.70;;;;;;;13.72;73.76;101455.03;5056323;28;20043;-74
2023/05/03 05:59:50;;;;;;;9.05;3.78;;;;;;;13.83;73.46;101454.50;5056640;28;20025;-72
2023/05/03 06:02:26;;;;;;;10.50;3.85;;;;;;;14.03;71.61;101460.44;5056956;28;20438;-75
2023/05/03 06:04:53;;;;;;;10.70;4.65;;;;;;;14.19;71.01;101467.81;5056002;28;20036;-72
2023/05/03 06:07:18;;;;;;;8.93;3.55;;;;;;;14.24;68.65;101472.88;5056316;28;20504;-73
2023/05/03 06:09:44;;;;;;;7.60;3.60;;;;;;;14.28;68.21;101473.53;5055863;28;20033;-74
2023/05/03 06:12:12;;;;;;;8.32;3.95;;;;;;;14.37;68.09;101470.56;5054665;28;20368;-72
2023/05/03 06:14:38;;;;;;;10.80;4.00;;;;;;;14.53;68.60;101469.34;5054426;28;20554;-73
2023/05/03 06:17:08;;;;;;;6.13;3.70;;;;;;;14.85;66.34;101477.03;5053631;28;20120;-72
2023/05/03 06:19:33;;;;;;;9.30;3.50;;;;;;;15.17;64.80;101478.94;5056562;28;20051;-73
2023/05/03 06:21:59;;;;;;;7.75;3.55;;;;;;;15.59;62.75;101480.72;5056097;28;20526;-73
2023/05/03 06:24:29;;;;;;;7.70;3.92;;;;;;;16.02;61.10;101484.78;5056445;28;20032;-73
2023/05/03 06:26:56;;;;;;;7.05;3.03;;;;;;;16.93;60.09;101492.81;5054900;28;20470;-73
2023/05/03 06:29:21;;;;;;;7.07;3.88;;;;;;;18.27;56.95;101488.91;5056268;28;20115;-74
2023/05/03 06:31:47;;;;;;;5.15;2.80;;;;;;;19.34;51.96;101493.75;5056019;28;20116;-75
2023/05/03 06:34:20;;;;;;;10.13;3.42;;;;;;;21.21;45.83;101503.78;5055995;28;20031;-74
2023/05/03 06:36:54;;;;;;;7.72;3.70;;;;;;;22.76;41.95;101503.63;5022106;28;20066;-74
2023/05/03 06:39:21;;;;;;;6.60;3.13;;;;;;;23.23;39.37;101512.78;5055107;28;20354;-74
2023/05/03 06:41:47;;;;;;;7.22;2.95;;;;;;;23.47;37.43;101501.00;5056136;28;20458;-75
2023/05/03 06:44:13;;;;;;;4.82;3.10;;;;;;;23.86;37.13;101502.47;5055594;28;20060;-75
2023/05/03 06:46:48;;;;;;;10.30;2.97;;;;;;;24.43;34.94;101498.75;5053454;28;20134;-77
2023/05/03 06:49:14;;;;;;;17.58;4.30;;;;;;;24.88;34.21;101504.47;5056369;28;20485;-76
2023/05/03 06:51:39;;;;;;;9.50;3.90;;;;;;;24.98;33.61;101493.09;5056277;28;20095;-75
2023/05/03 06:54:14;;;;;;;8.35;3.13;;;;;;;24.91;33.36;101506.25;5056244;28;20450;-75
2023/05/03 06:56:41;;;;;;;4.80;3.00;;;;;;;24.93;33.18;101503.56;5053872;28;20060;-74
2023/05/03 06:59:08;;;;;;;8.00;3.38;;;;;;;25.47;33.48;101499.88;5055685;28;20028;-76
2023/05/03 07:01:35;;;;;;;4.82;2.72;;;;;;;26.00;31.43;101511.31;5055557;28;20035;-76
2023/05/03 07:04:01;;;;;;;7.90;3.15;;;;;;;25.70;29.79;101502.28;5055995;28;20036;-75
2023/05/03 07:06:27;;;;;;;8.35;2.90;;;;;;;25.25;31.17;101496.69;5055214;28;20029;-74
2023/05/03 07:08:53;;;;;;;5.85;2.45;;;;;;;24.96;31.15;101507.47;5055580;28;20025;-75
2023/05/03 07:11:48;;;;;;;5.97;3.03;;;;;;;25.11;31.61;101507.66;5038226;28;20425;-73
2023/05/03 07:14:15;;;;;;;9.13;2.75;;;;;;;26.00;30.67;101511.31;5055228;28;20454;-75
2023/05/03 07:16:43;;;;;;;5.82;2.60;;;;;;;26.40;29.47;101497.19;5053185;28;20107;-75
2023/05/03 07:19:08;;;;;;;8.23;2.78;;;;;;;26.44;28.36;101499.75;5055642;28;20033;-75
2023/05/03 07:21:34;;;;;;;6.13;3.30;;;;;;;26.02;28.23;101499.81;5056317;28;20028;-74
2023/05/03 07:24:00;;;;;;;5.45;2.78;;;;;;;25.60;28.65;101495.34;5054465;28;20037;-72
2023/05/03 07:26:26;;;;;;;9.23;2.50;;;;;;;25.72;28.69;101490.78;5054355;28;20033;-71
2023/05/03 07:28:52;;;;;;;9.45;2.78;;;;;;;26.31;27.76;101486.78;5054774;28;20083;-73
2023/05/03 07:31:17;;;;;;;5.22;2.58;;;;;;;26.73;27.58;101484.50;5053654;28;20112;-73
2023/05/03 07:33:43;;;;;;;10.95;3.10;;;;;;;27.41;26.92;101489.03;5054965;28;20469;-75
2023/05/03 07:36:09;;;;;;;10.82;2.60;;;;;;;27.77;26.65;101480.84;5053598;28;20440;-72
2023/05/03 07:38:36;;;;;;;5.53;3.00;;;;;;;27.88;26.56;101474.59;5055004;28;20029;-73
2023/05/03 07:41:03;;;;;;;6.82;2.78;;;;;;;27.71;25.84;101477.31;5055051;28;20025;-73
2023/05/03 07:43:29;;;;;;;6.75;2.72;;;;;;;27.52;26.45;101476.91;5055111;28;20033;-73
2023/05/03 07:45:56;;;;;;;6.65;2.50;;;;;;;27.34;25.71;101475.13;5054309;28;20033;-73
2023/05/03 07:48:21;;;;;;;8.30;3.08;;;;;;;27.19;26.64;101473.72;5053364;28;20111;-73
2023/05/03 07:50:47;;;;;;;9.32;2.92;;;;;;;26.95;25.77;101476.38;5053672;28;20060;-75
2023/05/03 07:53:13;;;;;;;4.78;2.30;;;;;;;26.94;26.27;101472.66;5053932;28;20374;-74
2023/05/03 07:55:41;;;;;;;5.15;2.25;;;;;;;27.24;26.40;101479.97;5052325;28;20033;-74
2023/05/03 07:58:07;;;;;;;5.68;2.55;;;;;;;27.32;25.70;101475.72;5054073;28;20049;-74
2023/05/03 08:00:34;;;;;;;3.20;1.73;;;;;;;27.39;24.99;101466.16;5054152;28;20039;-74
2023/05/03 08:03:03;;;;;;;5.15;2.47;;;;;;;27.61;24.85;101459.50;5054353;28;20032;-75
2023/05/03 08:05:29;;;;;;;6.63;2.50;;;;;;;28.63;24.75;101452.34;5053698;28;20035;-74
2023/05/03 08:07:55;;;;;;;3.63;2.35;;;;;;;29.82;23.59;101453.63;5046976;28;20037;-76
2023/05/03 08:10:21;;;;;;;5.13;2.08;;;;;;;30.36;22.00;101453.91;5054109;28;20025;-74
2023/05/03 08:12:49;;;;;;;11.02;2.90;;;;;;;29.94;22.19;101445.84;5053177;28;20033;-74
2023/05/03 08:15:16;;;;;;;7.90;2.53;;;;;;;29.36;22.75;101453.16;5054246;28;20025;-77
2023/05/03 08:17:43;;;;;;;3.17;2.05;;;;;;;29.87;22.79;101445.91;5054445;28;20382;-75
2023/05/03 08:20:10;;;;;;;3.45;1.80;;;;;;;30.06;21.67;101443.19;5052312;28;20048;-77
2023/05/03 08:22:39;;;;;;;6.20;2.00;;;;;;;29.31;22.15;101445.34;5054096;28;20484;-76
2023/05/03 08:25:16;;;;;;;5.93;2.47;;;;;;;27.99;22.15;101450.72;5052836;28;20036;-74
2023/05/03 08:27:42;;;;;;;4.13;2.17;;;;;;;27.41;23.88;101439.91;5053446;28;20048;-74
2023/05/03 08:30:09;;;;;;;5.45;1.65;;;;;;;27.01;22.74;101448.41;5052821;28;20021;-74
2023/05/03 08:32:36;;;;;;;5.10;1.92;;;;;;;26.62;22.73;101448.81;5035478;28;20063;-75
2023/05/03 08:35:05;;;;;;;3.55;1.80;;;;;;;26.06;23.45;101450.44;5053554;28;20437;-75
2023/05/03 08:37:40;;;;;;;6.03;2.15;;;;;;;25.40;24.06;101450.81;5054045;28;20032;-74
2023/05/03 08:40:26;;;;;;;5.30;1.88;;;;;;;25.40;25.08;101456.69;5052864;28;20040;-75
2023/05/03 08:43:03;;;;;;;4.82;1.60;;;;;;;24.95;24.58;101451.13;5052029;28;20051;-77
2023/05/03 08:45:32;;;;;;;4.05;1.85;;;;;;;24.52;24.97;101456.59;5053692;28;20480;-74
2023/05/03 08:48:01;;;;;;;4.03;2.20;;;;;;;24.24;25.46;101460.09;5036048;28;20037;-76
2023/05/03 08:50:27;;;;;;;4.45;2.10;;;;;;;23.75;25.86;101463.38;5052494;28;20048;-76
2023/05/03 08:52:53;;;;;;;5.20;2.08;;;;;;;23.17;26.44;101465.41;5052725;28;20037;-77
2023/05/03 08:55:19;;;;;;;3.40;1.98;;;;;;;22.59;26.87;101465.94;5053468;28;20029;-76
2023/05/03 08:57:45;;;;;;;4.63;2.20;;;;;;;22.00;27.72;101461.06;5052009;28;20044;-77
2023/05/03 09:00:11;;;;;;;6.03;2.00;;;;;;;21.50;27.90;101468.16;5053863;28;20082;-75
2023/05/03 09:02:39;;;;;;;7.32;2.85;;;;;;;21.29;29.38;101463.31;5053818;28;20422;-77
2023/05/03 09:05:37;;;;;;;4.43;1.95;;;;;;;21.28;29.06;101479.97;5052778;28;20045;-75
2023/05/03 09:08:09;;;;;;;5.70;2.58;;;;;;;21.43;29.46;101471.66;5053307;28;20537;-76
2023/05/03 09:10:42;;;;;;;5.03;2.30;;;;;;;21.97;29.19;101465.88;5054003;28;20033;-76
2023/05/03 09:13:08;;;;;;;5.63;1.95;;;;;;;22.68;28.65;101474.31;5052216;28;20068;-75
2023/05/03 09:15:34;;;;;;;2.53;1.42;;;;;;;23.24;27.84;101480.16;5051947;28;20037;-76
2023/05/03 09:18:19;;;;;;;3.63;2.08;;;;;;;23.53;26.82;101483.38;5052009;28;20028;-78
2023/05/03 09:20:50;;;;;;;5.40;1.50;;;;;;;23.35;26.60;101470.44;5053262;28;20466;-78
2023/05/03 09:23:29;;;;;;;3.13;1.90;;;;;;;22.98;26.24;101479.22;5052744;28;20485;-81
2023/05/03 09:25:56;;;;;;;7.75;2.60;;;;;;;22.46;27.14;101472.47;5053232;28;20470;-78
2023/05/03 09:28:22;;;;;;;5.28;1.70;;;;;;;22.09;27.66;101470.22;5035172;28;20048;-75
2023/05/03 09:31:04;;;;;;;6.07;3.33;;;;;;;21.70;28.44;101469.84;5052765;28;20059;-76
2023/05/03 09:33:32;;;;;;;5.43;2.17;;;;;;;21.44;28.93;101460.78;5052857;28;20324;-76
2023/05/03 09:36:04;;;;;;;4.15;2.15;;;;;;;21.29;29.27;101469.88;5056810;28;20033;-78
2023/05/03 09:38:51;;;;;;;4.60;2.10;;;;;;;21.06;29.88;101469.28;5067157;28;20071;-79
2023/05/03 09:41:30;;;;;;;7.05;2.55;;;;;;;21.19;30.20;101474.44;5061943;28;20088;-80
2023/05/03 09:44:01;;;;;;;9.43;2.60;;;;;;;21.19;29.55;101478.16;5080019;28;20041;-80
2023/05/03 09:46:31;;;;;;;4.75;2.20;;;;;;;21.14;29.87;101476.06;5072690;28;20045;-77
2023/05/03 09:48:58;;;;;;;6.80;2.38;;;;;;;21.09;30.41;101470.31;5056411;28;20096;-81
2023/05/03 09:51:28;;;;;;;5.65;2.47;;;;;;;21.16;29.77;101479.25;5051198;28;20032;-80
2023/05/03 09:53:55;;;;;;;7.72;2.10;;;;;;;21.21;29.94;101480.53;5051493;28;20029;-82
2023/05/03 09:56:25;;;;;;;4.72;2.00;;;;;;;21.32;29.89;101471.72;5046666;28;20061;-81
2023/05/03 09:58:52;;;;;;;7.65;2.63;;;;;;;21.44;28.76;101475.31;5052504;28;20047;-80
2023/05/03 10:01:21;;;;;;;4.20;1.85;;;;;;;21.58;29.38;101472.06;5051932;28;20025;-80
2023/05/03 10:03:56;;;;;;;5.18;1.90;;;;;;;21.82;28.93;101473.44;5036330;28;20037;-80
2023/05/03 10:06:31;;;;;;;5.75;2.13;;;;;;;22.11;28.73;101469.69;5051557;28;20108;-78
2023/05/03 10:09:15;;;;;;;3.65;2.17;;;;;;;22.55;29.01;101473.44;5053007;28;20040;-79
2023/05/03 10:11:53;;;;;;;4.75;2.15;;;;;;;23.09;28.66;101473.22;5052608;28;20028;-79
2023/05/03 10:14:21;;;;;;;5.13;2.30;;;;;;;23.29;27.23;101472.66;5052759;28;20041;-79
2023/05/03 10:16:49;;;;;;;6.82;2.47;;;;;;;23.16;26.97;101463.84;5052836;28;20029;-79
2023/05/03 10:19:24;;;;;;;6.78;2.15;;;;;;;22.90;26.84;101467.41;5051183;28;20037;-79
2023/05/03 10:22:09;;;;;;;3.78;2.35;;;;;;;22.59;27.66;101459.31;5052793;28;20442;-82
2023/05/03 10:24:38;;;;;;;5.72;2.40;;;;;;;22.46;27.73;101462.94;5052694;28;20090;-79
2023/05/03 10:27:23;;;;;;;3.78;2.50;;;;;;;22.46;27.96;101460.03;5034718;28;20068;-78
2023/05/03 10:29:54;;;;;;;5.72;2.20;;;;;;;22.49;27.96;101464.75;5051429;28;20029;-78
2023/05/03 10:32:41;;;;;;;6.27;2.53;;;;;;;22.33;27.95;101466.53;5048867;28;20029;-79
2023/05/03 10:35:12;;;;;;;7.57;2.05;;;;;;;22.11;28.18;101455.13;5052505;28;20025;-78
2023/05/03 10:37:40;;;;;;;4.55;1.90;;;;;;;21.86;28.82;101453.56;5051315;28;20025;-78
2023/05/03 10:40:21;;;;;;;3.67;2.58;;;;;;;21.54;28.52;101464.94;5051256;28;20068;-77
2023/05/03 10:42:55;;;;;;;4.65;2.53;;;;;;;21.12;29.55;101445.97;5039081;28;20028;-78
2023/05/03 10:45:28;;;;;;;8.00;2.47;;;;;;;20.90;30.26;101451.94;5055355;28;20106;-78
2023/05/03 10:48:10;;;;;;;3.88;2.15;;;;;;;20.69;31.05;101455.22;5054538;28;20107;-77
2023/05/03 10:50:39;;;;;;;5.40;2.40;;;;;;;20.67;31.03;101454.16;5054798;28;20025;-77
2023/05/03 10:53:05;;;;;;;5.57;2.30;;;;;;;20.56;30.74;101451.31;5025579;28;20037;-80
2023/05/03 10:55:35;;;;;;;5.82;2.78;;;;;;;20.48;31.64;101450.28;5043524;28;20036;-79
2023/05/03 10:58:03;;;;;;;4.93;2.38;;;;;;;20.31;30.72;101451.16;5054592;28;20128;-79
2023/05/03 11:00:32;;;;;;;6.57;2.40;;;;;;;20.01;30.39;101453.09;5045802;28;20026;-78
2023/05/03 11:03:07;;;;;;;5.80;2.13;;;;;;;19.65;30.86;101452.09;5044119;28;20386;-78
2023/05/03 11:05:33;;;;;;;4.20;2.63;;;;;;;19.26;30.93;101445.53;5043615;28;20045;-78
2023/05/03 11:08:18;;;;;;;4.57;1.90;;;;;;;19.04;30.95;101455.75;5040538;28;20032;-78
2023/05/03 11:10:44;;;;;;;4.95;2.20;;;;;;;18.76;31.81;101459.91;5054926;28;20116;-80
2023/05/03 11:13:11;;;;;;;5.63;3.00;;;;;;;18.53;31.15;101456.91;5015930;28;20124;-80
2023/05/03 11:15:52;;;;;;;6.85;2.65;;;;;;;18.30;31.83;101463.91;5047428;28;20033;-80
2023/05/03 11:18:39;;;;;;;4.47;2.08;;;;;;;18.14;31.95;101465.41;5054738;28;20115;-78
2023/05/03 11:21:07;;;;;;;5.40;2.50;;;;;;;18.08;32.73;101458.78;5053893;28;20098;-79
2023/05/03 11:23:37;;;;;;;6.22;2.13;;;;;;;18.23;35.50;101447.03;5056316;28;20055;-77
2023/05/03 11:26:09;;;;;;;3.10;2.00;;;;;;;18.38;34.40;101456.34;5060182;28;20044;-81
2023/05/03 11:28:38;;;;;;;4.50;2.28;;;;;;;18.59;32.91;101454.84;5048518;28;20021;-81
2023/05/03 11:31:07;;;;;;;5.68;2.17;;;;;;;18.55;32.51;101450.63;5054658;28;20032;-77